Terminal Aerodrome Forecast
Issued by NWS Pueblo, CO

Home | Current Version | Previous Version | Text Only | Print | Product List | Glossary On
Versions: 1 2 3 4 5 6 7 8 9 10 11 12 13 14 15 16 17 18 19 20 21 22 23 24 25 26 27 28 29 30 31 32 33 34 35 36 37 38 39 40 41 42 43 44 45
000
FTUS45 KPUB 290520
TAFCOS
TAF
KCOS 290520Z 2906/3006 02007KT P6SM FEW150 SCT200
     FM291600 02010KT P6SM SCT200
     FM292100 13010KT P6SM VCTS SCT060CB SCT200
     FM300200 34008KT P6SM SCT100 BKN150=

USA.gov is the U.S. government's official web portal to all federal, state and local government web resources and services.